LNG Dream — C6VO5 — position and weather

sailwx.info

Track history (hours):
 
Tides and Currents Weather Stations Pressure Air Temp Water Temp Dewpoint Dewpoint Depression Visibility Wind Speed Wind Dir Waves Ship Positions

LNG Dream

Last reported at 2018-Apr-14 07:34 UTC. Time now 2018-Apr-19 17:27 UTC.
Position N 33°41' E 134°55'.

Length 289.6 m; beam 49 m.

Type: Ship (hazmat cat A). MMSI: 309065000.

Date/timePositionNaut miles runAvg speedWind from/ knotsBaromVisibWave heightAir tempDewpointWater temp
2018-Apr-14 07:34N 33°41' E 134°55'112.0
2018-Apr-14 07:26N 33°42' E 134°55'512.0
2018-Apr-14 07:01N 33°47' E 134°55'611.8
2018-Apr-14 06:31N 33°53' E 134°56'611.5
2018-Apr-14 06:01N 33°59' E 134°56'611.6
2018-Apr-14 05:30N 34°05' E 134°56'611.9
2018-Apr-14 05:01N 34°10' E 134°57'5 9.2
2018-Apr-14 04:30N 34°15' E 134°58'612.8
2018-Apr-14 04:00N 34°21' E 134°59'713.7
2018-Apr-14 03:30N 34°28' E 135°02'611.5
2018-Apr-14 03:00N 34°33' E 135°05'510.3
2018-Apr-14 02:30N 34°37' E 135°01'815.2
2018-Apr-14 02:00N 34°34' E 134°52'713.5
2018-Apr-14 01:31N 34°33' E 134°44'612.4
2018-Apr-14 01:00N 34°39' E 134°42'611.8
2018-Apr-14 00:30N 34°45' E 134°41'1 2.4
2018-Apr-14 00:00N 34°46' E 134°41'0 0.0
2018-Apr-13 23:19N 34°46' E 134°41'0 0.0
2018-Apr-13 22:58N 34°46' E 134°41'0 0.0
2018-Apr-13 05:16N 34°46' E 134°41'0 0.0
2018-Apr-13 05:00N 34°46' E 134°41'0 0.0
2018-Apr-13 04:30N 34°46' E 134°41'0 0.5
2018-Apr-13 04:00N 34°46' E 134°41'3 6.3
2018-Apr-13 03:31N 34°43' E 134°41'510.3
2018-Apr-13 03:01N 34°38' E 134°42'611.7
2018-Apr-13 02:30N 34°33' E 134°46'713.9
2018-Apr-13 02:00N 34°36' E 134°54'611.9
2018-Apr-13 01:31N 34°37' E 135°01'510.3
2018-Apr-13 01:00N 34°34' E 135°06'2 4.2
2018-Apr-13 00:30N 34°33' E 135°08'4 7.2
2018-Apr-13 00:00N 34°29' E 135°06'611.1
2018-Apr-12 23:30N 34°24' E 135°03'612.7
2018-Apr-12 23:00N 34°19' E 134°60'713.2
2018-Apr-12 22:30N 34°12' E 134°59'4 8.5
2018-Apr-12 22:01N 34°08' E 134°59'5 9.7
2018-Apr-12 21:30N 34°03' E 134°59'4 7.7
2018-Apr-12 21:00N 33°59' E 134°58'612.9
2018-Apr-12 20:30N 33°53' E 134°58'714.2
2018-Apr-12 20:00N 33°46' E 134°58'713.2
2018-Apr-12 19:30N 33°39' E 134°59'510.8
2018-Apr-12 19:00N 33°34' E 134°59'510.9
2018-Apr-12 18:30N 33°28' E 134°59'611.5
2018-Apr-12 18:00N 33°23' E 135°02'510.8
2018-Apr-12 17:30N 33°18' E 135°04'713.5
2018-Apr-12 16:58N 33°14' E 134°57'  
2018-Apr-05 02:44S 16°47' E 118°53'519.7
2018-Apr-05 02:29S 16°52' E 118°51'4219.7
2018-Apr-05 00:20S 17°28' E 118°29'819.7
2018-Apr-04 23:56S 17°35' E 118°25'920.1
2018-Apr-04 23:30S 17°43' E 118°20'3519.7
2018-Apr-04 21:43S 18°14' E 118°02'1119.8
2018-Apr-04 21:08S 18°24' E 117°57'320.3
2018-Apr-04 21:00S 18°26' E 117°55'2620.1
2018-Apr-04 19:43S 18°48' E 117°41'520.1
2018-Apr-04 19:29S 18°52' E 117°38'1020.1
2018-Apr-04 19:00S 19°00' E 117°33'1020.2
2018-Apr-04 18:30S 19°09' E 117°28'1020.2
2018-Apr-04 18:00S 19°18' E 117°22'1019.8
2018-Apr-04 17:30S 19°27' E 117°17'1019.8
2018-Apr-04 16:58S 19°36' E 117°12'919.6
2018-Apr-04 16:30S 19°44' E 117°07'1019.5
2018-Apr-04 15:58S 19°53' E 117°02'919.2
2018-Apr-04 15:30S 20°00' E 116°57'917.3
2018-Apr-04 15:00S 20°08' E 116°52'714.6
2018-Apr-04 14:30S 20°14' E 116°48'713.6
2018-Apr-04 14:00S 20°20' E 116°45'510.3
2018-Apr-04 13:29S 20°25' E 116°44'5 9.7
2018-Apr-04 12:57S 20°31' E 116°43'3 7.2
2018-Apr-04 12:28S 20°34' E 116°45'2 3.6
2018-Apr-04 11:59S 20°35' E 116°46'  
Track history (hours):
 
Tides and Currents Weather Stations Pressure Air Temp Water Temp Dewpoint Dewpoint Depression Visibility Wind Speed Wind Dir Waves Ship Positions

LNG Dream

Last reported at 2018-Apr-14 07:34 UTC. Time now 2018-Apr-19 17:27 UTC.
Position N 33°41' E 134°55'.

Length 289.6 m; beam 49 m.

Type: Ship (hazmat cat A). MMSI: 309065000.

Date/timePositionNaut miles runAvg speedWind from/ knotsBaromVisibWave heightAir tempDewpointWater temp
2018-Apr-14 07:34N 33°41' E 134°55'112.0
2018-Apr-14 07:26N 33°42' E 134°55'512.0
2018-Apr-14 07:01N 33°47' E 134°55'611.8
2018-Apr-14 06:31N 33°53' E 134°56'611.5
2018-Apr-14 06:01N 33°59' E 134°56'611.6
2018-Apr-14 05:30N 34°05' E 134°56'611.9
2018-Apr-14 05:01N 34°10' E 134°57'5 9.2
2018-Apr-14 04:30N 34°15' E 134°58'612.8
2018-Apr-14 04:00N 34°21' E 134°59'713.7
2018-Apr-14 03:30N 34°28' E 135°02'611.5
2018-Apr-14 03:00N 34°33' E 135°05'510.3
2018-Apr-14 02:30N 34°37' E 135°01'815.2
2018-Apr-14 02:00N 34°34' E 134°52'713.5
2018-Apr-14 01:31N 34°33' E 134°44'612.4
2018-Apr-14 01:00N 34°39' E 134°42'611.8
2018-Apr-14 00:30N 34°45' E 134°41'1 2.4
2018-Apr-14 00:00N 34°46' E 134°41'0 0.0
2018-Apr-13 23:19N 34°46' E 134°41'0 0.0
2018-Apr-13 22:58N 34°46' E 134°41'0 0.0
2018-Apr-13 05:16N 34°46' E 134°41'0 0.0
2018-Apr-13 05:00N 34°46' E 134°41'0 0.0
2018-Apr-13 04:30N 34°46' E 134°41'0 0.5
2018-Apr-13 04:00N 34°46' E 134°41'3 6.3
2018-Apr-13 03:31N 34°43' E 134°41'510.3
2018-Apr-13 03:01N 34°38' E 134°42'611.7
2018-Apr-13 02:30N 34°33' E 134°46'713.9
2018-Apr-13 02:00N 34°36' E 134°54'611.9
2018-Apr-13 01:31N 34°37' E 135°01'510.3
2018-Apr-13 01:00N 34°34' E 135°06'2 4.2
2018-Apr-13 00:30N 34°33' E 135°08'4 7.2
2018-Apr-13 00:00N 34°29' E 135°06'611.1
2018-Apr-12 23:30N 34°24' E 135°03'612.7
2018-Apr-12 23:00N 34°19' E 134°60'713.2
2018-Apr-12 22:30N 34°12' E 134°59'4 8.5
2018-Apr-12 22:01N 34°08' E 134°59'5 9.7
2018-Apr-12 21:30N 34°03' E 134°59'4 7.7
2018-Apr-12 21:00N 33°59' E 134°58'612.9
2018-Apr-12 20:30N 33°53' E 134°58'714.2
2018-Apr-12 20:00N 33°46' E 134°58'713.2
2018-Apr-12 19:30N 33°39' E 134°59'510.8
2018-Apr-12 19:00N 33°34' E 134°59'510.9
2018-Apr-12 18:30N 33°28' E 134°59'611.5
2018-Apr-12 18:00N 33°23' E 135°02'510.8
2018-Apr-12 17:30N 33°18' E 135°04'713.5
2018-Apr-12 16:58N 33°14' E 134°57'  
2018-Apr-05 02:44S 16°47' E 118°53'519.7
2018-Apr-05 02:29S 16°52' E 118°51'4219.7
2018-Apr-05 00:20S 17°28' E 118°29'819.7
2018-Apr-04 23:56S 17°35' E 118°25'920.1
2018-Apr-04 23:30S 17°43' E 118°20'3519.7
2018-Apr-04 21:43S 18°14' E 118°02'1119.8
2018-Apr-04 21:08S 18°24' E 117°57'320.3
2018-Apr-04 21:00S 18°26' E 117°55'2620.1
2018-Apr-04 19:43S 18°48' E 117°41'520.1
2018-Apr-04 19:29S 18°52' E 117°38'1020.1
2018-Apr-04 19:00S 19°00' E 117°33'1020.2
2018-Apr-04 18:30S 19°09' E 117°28'1020.2
2018-Apr-04 18:00S 19°18' E 117°22'1019.8
2018-Apr-04 17:30S 19°27' E 117°17'1019.8
2018-Apr-04 16:58S 19°36' E 117°12'919.6
2018-Apr-04 16:30S 19°44' E 117°07'1019.5
2018-Apr-04 15:58S 19°53' E 117°02'919.2
2018-Apr-04 15:30S 20°00' E 116°57'917.3
2018-Apr-04 15:00S 20°08' E 116°52'714.6
2018-Apr-04 14:30S 20°14' E 116°48'713.6
2018-Apr-04 14:00S 20°20' E 116°45'510.3
2018-Apr-04 13:29S 20°25' E 116°44'5 9.7
2018-Apr-04 12:57S 20°31' E 116°43'3 7.2
2018-Apr-04 12:28S 20°34' E 116°45'2 3.6
2018-Apr-04 11:59S 20°35' E 116°46'  

Dump ship's entire track history